sensor_id;sensor_type;location;lat;lon;timestamp;pressure;altitude;pressure_sealevel;temperature;humidity
70982;BME280;58640;51.320;9.456;2022-07-03T00:00:16;99557.72;;;19.40;52.44
70982;BME280;58640;51.320;9.456;2022-07-03T00:02:42;99558.75;;;19.39;52.28
70982;BME280;58640;51.320;9.456;2022-07-03T00:05:07;99554.69;;;19.30;52.60
70982;BME280;58640;51.320;9.456;2022-07-03T00:07:33;99560.19;;;19.23;52.57
70982;BME280;58640;51.320;9.456;2022-07-03T00:09:58;99561.94;;;19.18;52.94
70982;BME280;58640;51.320;9.456;2022-07-03T00:12:24;99555.09;;;19.09;53.31
70982;BME280;58640;51.320;9.456;2022-07-03T00:14:49;99556.19;;;19.08;53.69
70982;BME280;58640;51.320;9.456;2022-07-03T00:17:16;99560.94;;;19.12;53.08
70982;BME280;58640;51.320;9.456;2022-07-03T00:19:41;99560.63;;;19.02;54.07
70982;BME280;58640;51.320;9.456;2022-07-03T00:22:11;99556.31;;;18.94;54.33
70982;BME280;58640;51.320;9.456;2022-07-03T00:27:09;99563.06;;;18.92;53.88
70982;BME280;58640;51.320;9.456;2022-07-03T00:29:38;99560.66;;;18.84;54.69
70982;BME280;58640;51.320;9.456;2022-07-03T00:32:06;99560.94;;;18.76;54.50
70982;BME280;58640;51.320;9.456;2022-07-03T00:34:32;99564.06;;;18.79;54.58
70982;BME280;58640;51.320;9.456;2022-07-03T00:37:00;99556.53;;;18.75;54.68
70982;BME280;58640;51.320;9.456;2022-07-03T00:39:26;99562.03;;;18.68;55.10
70982;BME280;58640;51.320;9.456;2022-07-03T00:42:00;99557.09;;;18.59;55.19
70982;BME280;58640;51.320;9.456;2022-07-03T00:44:27;99551.06;;;18.57;55.39
70982;BME280;58640;51.320;9.456;2022-07-03T00:46:54;99560.44;;;18.61;55.14
70982;BME280;58640;51.320;9.456;2022-07-03T00:49:22;99559.47;;;18.55;55.42
70982;BME280;58640;51.320;9.456;2022-07-03T00:51:51;99552.84;;;18.45;55.73
70982;BME280;58640;51.320;9.456;2022-07-03T00:54:19;99550.16;;;18.38;55.89
70982;BME280;58640;51.320;9.456;2022-07-03T00:56:50;99546.88;;;18.30;56.35
70982;BME280;58640;51.320;9.456;2022-07-03T00:59:15;99548.38;;;18.26;56.37
70982;BME280;58640;51.320;9.456;2022-07-03T01:01:41;99549.22;;;18.26;56.55
70982;BME280;58640;51.320;9.456;2022-07-03T01:07:06;99550.75;;;18.16;56.51
70982;BME280;58640;51.320;9.456;2022-07-03T01:10:06;99548.75;;;18.05;57.05
70982;BME280;58640;51.320;9.456;2022-07-03T01:15:49;99552.75;;;18.02;57.18
70982;BME280;58640;51.320;9.456;2022-07-03T01:20:59;99542.53;;;17.98;57.08
70982;BME280;58640;51.320;9.456;2022-07-03T01:26:17;99545.06;;;17.93;57.50
70982;BME280;58640;51.320;9.456;2022-07-03T01:28:45;99539.50;;;17.81;57.56
70982;BME280;58640;51.320;9.456;2022-07-03T01:31:16;99538.50;;;17.76;57.73
70982;BME280;58640;51.320;9.456;2022-07-03T01:33:44;99538.09;;;17.72;57.95
70982;BME280;58640;51.320;9.456;2022-07-03T01:36:13;99541.25;;;17.69;58.15
70982;BME280;58640;51.320;9.456;2022-07-03T01:38:40;99535.22;;;17.61;58.28
70982;BME280;58640;51.320;9.456;2022-07-03T01:41:08;99534.28;;;17.48;59.03
70982;BME280;58640;51.320;9.456;2022-07-03T01:43:48;99533.13;;;17.63;58.34
70982;BME280;58640;51.320;9.456;2022-07-03T01:46:18;99527.72;;;17.56;58.74
70982;BME280;58640;51.320;9.456;2022-07-03T01:48:47;99526.66;;;17.57;58.64
70982;BME280;58640;51.320;9.456;2022-07-03T01:51:15;99523.72;;;17.59;58.67
70982;BME280;58640;51.320;9.456;2022-07-03T01:53:46;99534.66;;;17.52;58.68
70982;BME280;58640;51.320;9.456;2022-07-03T01:56:14;99535.72;;;17.51;58.65
70982;BME280;58640;51.320;9.456;2022-07-03T01:58:39;99529.28;;;17.45;58.82
70982;BME280;58640;51.320;9.456;2022-07-03T02:01:22;99528.22;;;17.40;58.97
70982;BME280;58640;51.320;9.456;2022-07-03T02:04:11;99526.38;;;17.34;58.85
70982;BME280;58640;51.320;9.456;2022-07-03T02:06:43;99533.50;;;17.22;59.30
70982;BME280;58640;51.320;9.456;2022-07-03T02:09:11;99520.72;;;17.29;58.80
70982;BME280;58640;51.320;9.456;2022-07-03T02:11:39;99524.56;;;17.15;59.59
70982;BME280;58640;51.320;9.456;2022-07-03T02:14:14;99530.00;;;17.15;59.55
70982;BME280;58640;51.320;9.456;2022-07-03T02:19:37;99527.88;;;17.17;59.50
70982;BME280;58640;51.320;9.456;2022-07-03T02:22:07;99518.94;;;17.10;59.39
70982;BME280;58640;51.320;9.456;2022-07-03T02:24:42;99520.81;;;17.09;59.25
70982;BME280;58640;51.320;9.456;2022-07-03T02:27:15;99519.34;;;17.13;58.69
70982;BME280;58640;51.320;9.456;2022-07-03T02:29:50;99520.38;;;17.12;58.74
70982;BME280;58640;51.320;9.456;2022-07-03T02:32:22;99520.19;;;17.07;59.16
70982;BME280;58640;51.320;9.456;2022-07-03T02:34:58;99518.16;;;16.96;59.79
70982;BME280;58640;51.320;9.456;2022-07-03T02:37:29;99508.13;;;16.97;59.42
70982;BME280;58640;51.320;9.456;2022-07-03T02:40:08;99504.78;;;16.95;59.69
70982;BME280;58640;51.320;9.456;2022-07-03T02:42:42;99506.69;;;16.94;59.32
70982;BME280;58640;51.320;9.456;2022-07-03T02:45:11;99506.25;;;16.91;59.71
70982;BME280;58640;51.320;9.456;2022-07-03T02:48:02;99511.06;;;16.95;59.66
70982;BME280;58640;51.320;9.456;2022-07-03T02:50:31;99503.75;;;16.96;59.43
70982;BME280;58640;51.320;9.456;2022-07-03T02:53:01;99517.72;;;16.99;59.58
70982;BME280;58640;51.320;9.456;2022-07-03T02:55:40;99513.13;;;16.93;59.51
70982;BME280;58640;51.320;9.456;2022-07-03T03:01:20;99518.16;;;16.96;59.50
70982;BME280;58640;51.320;9.456;2022-07-03T03:03:44;99520.66;;;16.98;59.85
70982;BME280;58640;51.320;9.456;2022-07-03T03:06:13;99516.28;;;16.90;59.85
70982;BME280;58640;51.320;9.456;2022-07-03T03:08:47;99526.50;;;16.95;59.68
70982;BME280;58640;51.320;9.456;2022-07-03T03:11:23;99518.16;;;16.90;60.02
70982;BME280;58640;51.320;9.456;2022-07-03T03:13:50;99518.00;;;16.78;60.33
70982;BME280;58640;51.320;9.456;2022-07-03T03:16:20;99519.88;;;16.78;60.18
70982;BME280;58640;51.320;9.456;2022-07-03T03:18:46;99525.13;;;16.73;60.42
70982;BME280;58640;51.320;9.456;2022-07-03T03:21:16;99520.75;;;16.65;61.01
70982;BME280;58640;51.320;9.456;2022-07-03T03:23:49;99519.91;;;16.65;60.58
70982;BME280;58640;51.320;9.456;2022-07-03T03:26:26;99522.19;;;16.68;60.53
70982;BME280;58640;51.320;9.456;2022-07-03T03:28:56;99518.47;;;16.62;60.90
70982;BME280;58640;51.320;9.456;2022-07-03T03:31:23;99520.97;;;16.57;60.67
70982;BME280;58640;51.320;9.456;2022-07-03T03:33:50;99515.34;;;16.52;61.47
70982;BME280;58640;51.320;9.456;2022-07-03T03:36:18;99517.22;;;16.52;60.82
70982;BME280;58640;51.320;9.456;2022-07-03T03:38:44;99512.19;;;16.62;60.75
70982;BME280;58640;51.320;9.456;2022-07-03T03:41:10;99515.34;;;16.59;60.67
70982;BME280;58640;51.320;9.456;2022-07-03T03:43:36;99518.06;;;16.59;60.55
70982;BME280;58640;51.320;9.456;2022-07-03T03:46:02;99516.78;;;16.61;60.65
70982;BME280;58640;51.320;9.456;2022-07-03T03:48:28;99518.28;;;16.51;60.86
70982;BME280;58640;51.320;9.456;2022-07-03T03:50:54;99514.94;;;16.49;60.87
70982;BME280;58640;51.320;9.456;2022-07-03T03:53:20;99513.25;;;16.41;61.54
70982;BME280;58640;51.320;9.456;2022-07-03T03:56:12;99515.97;;;16.41;61.47
70982;BME280;58640;51.320;9.456;2022-07-03T03:58:41;99511.59;;;16.47;61.02
70982;BME280;58640;51.320;9.456;2022-07-03T04:01:07;99514.72;;;16.50;61.23
70982;BME280;58640;51.320;9.456;2022-07-03T04:03:34;99512.19;;;16.42;62.11
70982;BME280;58640;51.320;9.456;2022-07-03T04:06:00;99520.75;;;16.39;62.07
70982;BME280;58640;51.320;9.456;2022-07-03T04:08:26;99520.75;;;16.39;62.48
70982;BME280;58640;51.320;9.456;2022-07-03T04:10:52;99514.50;;;16.39;62.63
70982;BME280;58640;51.320;9.456;2022-07-03T04:13:18;99512.03;;;16.31;62.71
70982;BME280;58640;51.320;9.456;2022-07-03T04:15:47;99515.56;;;16.31;62.94
70982;BME280;58640;51.320;9.456;2022-07-03T04:18:13;99512.41;;;16.28;63.15
70982;BME280;58640;51.320;9.456;2022-07-03T04:20:39;99514.91;;;16.29;62.98
70982;BME280;58640;51.320;9.456;2022-07-03T04:23:04;99514.91;;;16.36;62.87
70982;BME280;58640;51.320;9.456;2022-07-03T04:25:30;99512.63;;;16.39;62.51
70982;BME280;58640;51.320;9.456;2022-07-03T04:27:55;99512.19;;;16.36;62.99
70982;BME280;58640;51.320;9.456;2022-07-03T04:30:21;99507.19;;;16.26;62.58
70982;BME280;58640;51.320;9.456;2022-07-03T04:32:46;99515.56;;;16.25;62.55
70982;BME280;58640;51.320;9.456;2022-07-03T04:35:13;99512.84;;;16.31;62.52
70982;BME280;58640;51.320;9.456;2022-07-03T04:37:38;99521.41;;;16.28;62.81
70982;BME280;58640;51.320;9.456;2022-07-03T04:40:04;99510.75;;;16.27;62.70
70982;BME280;58640;51.320;9.456;2022-07-03T04:42:30;99513.25;;;16.15;62.59
70982;BME280;58640;51.320;9.456;2022-07-03T04:44:55;99520.34;;;16.36;62.12
70982;BME280;58640;51.320;9.456;2022-07-03T04:47:21;99517.41;;;16.37;62.42
70982;BME280;58640;51.320;9.456;2022-07-03T04:49:46;99521.19;;;16.43;61.71
70982;BME280;58640;51.320;9.456;2022-07-03T04:52:12;99520.75;;;16.39;61.86
70982;BME280;58640;51.320;9.456;2022-07-03T04:54:37;99524.94;;;16.42;61.50
70982;BME280;58640;51.320;9.456;2022-07-03T04:57:03;99525.78;;;16.55;61.18
70982;BME280;58640;51.320;9.456;2022-07-03T04:59:29;99520.53;;;16.67;61.06
70982;BME280;58640;51.320;9.456;2022-07-03T05:01:54;99524.91;;;16.74;60.41
70982;BME280;58640;51.320;9.456;2022-07-03T05:04:21;99525.09;;;16.86;60.44
70982;BME280;58640;51.320;9.456;2022-07-03T05:06:46;99521.28;;;17.00;59.96
70982;BME280;58640;51.320;9.456;2022-07-03T05:09:12;99516.28;;;17.34;58.72
70982;BME280;58640;51.320;9.456;2022-07-03T05:11:37;99525.84;;;17.88;56.94
70982;BME280;58640;51.320;9.456;2022-07-03T05:14:04;99512.25;;;18.12;57.04
70982;BME280;58640;51.320;9.456;2022-07-03T05:16:29;99514.81;;;18.07;57.39
70982;BME280;58640;51.320;9.456;2022-07-03T05:18:55;99521.69;;;18.41;55.92
70982;BME280;58640;51.320;9.456;2022-07-03T05:21:20;99516.28;;;18.95;54.60
70982;BME280;58640;51.320;9.456;2022-07-03T05:23:45;99523.53;;;19.19;53.45
70982;BME280;58640;51.320;9.456;2022-07-03T05:26:11;99517.72;;;19.63;53.00
70982;BME280;58640;51.320;9.456;2022-07-03T05:28:36;99517.66;;;19.93;51.55
70982;BME280;58640;51.320;9.456;2022-07-03T05:31:02;99517.56;;;19.99;51.26
70982;BME280;58640;51.320;9.456;2022-07-03T05:33:27;99518.59;;;20.28;50.48
70982;BME280;58640;51.320;9.456;2022-07-03T05:35:55;99518.50;;;20.69;49.68
70982;BME280;58640;51.320;9.456;2022-07-03T05:38:20;99521.31;;;20.86;50.14
70982;BME280;58640;51.320;9.456;2022-07-03T05:41:04;99520.72;;;21.18;48.10
70982;BME280;58640;51.320;9.456;2022-07-03T05:43:29;99523.38;;;21.41;46.24
70982;BME280;58640;51.320;9.456;2022-07-03T05:45:55;99527.59;;;21.21;48.24
70982;BME280;58640;51.320;9.456;2022-07-03T05:48:20;99519.56;;;21.70;46.79
70982;BME280;58640;51.320;9.456;2022-07-03T05:50:46;99513.59;;;21.73;45.73
70982;BME280;58640;51.320;9.456;2022-07-03T05:53:11;99524.63;;;21.90;46.61
70982;BME280;58640;51.320;9.456;2022-07-03T05:55:36;99520.66;;;22.31;43.34
70982;BME280;58640;51.320;9.456;2022-07-03T05:58:02;99530.84;;;22.02;43.40
70982;BME280;58640;51.320;9.456;2022-07-03T06:00:27;99520.00;;;22.24;44.20
70982;BME280;58640;51.320;9.456;2022-07-03T06:02:53;99525.94;;;22.87;42.72
70982;BME280;58640;51.320;9.456;2022-07-03T06:05:19;99525.72;;;23.10;41.56
70982;BME280;58640;51.320;9.456;2022-07-03T06:07:44;99526.81;;;23.52;40.75
70982;BME280;58640;51.320;9.456;2022-07-03T06:10:10;99526.22;;;23.45;41.25
70982;BME280;58640;51.320;9.456;2022-07-03T06:12:35;99525.22;;;23.35;43.36
70982;BME280;58640;51.320;9.456;2022-07-03T06:15:00;99526.97;;;23.41;44.05
70982;BME280;58640;51.320;9.456;2022-07-03T06:17:26;99524.59;;;23.97;43.02
70982;BME280;58640;51.320;9.456;2022-07-03T06:19:51;99523.06;;;24.11;41.09
70982;BME280;58640;51.320;9.456;2022-07-03T06:22:17;99530.19;;;24.07;40.28
70982;BME280;58640;51.320;9.456;2022-07-03T06:24:42;99521.19;;;23.90;41.63
70982;BME280;58640;51.320;9.456;2022-07-03T06:27:07;99516.56;;;24.22;40.60
70982;BME280;58640;51.320;9.456;2022-07-03T06:29:33;99519.81;;;24.51;39.73
70982;BME280;58640;51.320;9.456;2022-07-03T06:31:58;99524.91;;;25.06;38.50
70982;BME280;58640;51.320;9.456;2022-07-03T06:34:25;99523.28;;;25.86;37.06
70982;BME280;58640;51.320;9.456;2022-07-03T06:36:50;99534.84;;;25.73;35.73
70982;BME280;58640;51.320;9.456;2022-07-03T06:39:15;99529.97;;;25.29;36.44
70982;BME280;58640;51.320;9.456;2022-07-03T06:41:41;99527.81;;;25.36;35.29
70982;BME280;58640;51.320;9.456;2022-07-03T06:44:06;99530.50;;;25.21;36.59
70982;BME280;58640;51.320;9.456;2022-07-03T06:46:32;99537.38;;;25.23;35.79
70982;BME280;58640;51.320;9.456;2022-07-03T06:48:57;99528.09;;;24.88;36.05
70982;BME280;58640;51.320;9.456;2022-07-03T06:51:22;99523.59;;;25.18;36.75
70982;BME280;58640;51.320;9.456;2022-07-03T06:53:48;99526.22;;;25.50;36.21
70982;BME280;58640;51.320;9.456;2022-07-03T06:56:13;99516.94;;;25.76;35.16
70982;BME280;58640;51.320;9.456;2022-07-03T06:58:39;99527.34;;;25.54;35.18
70982;BME280;58640;51.320;9.456;2022-07-03T07:01:04;99521.63;;;25.70;34.75
70982;BME280;58640;51.320;9.456;2022-07-03T07:03:29;99511.94;;;25.01;36.11
70982;BME280;58640;51.320;9.456;2022-07-03T07:05:55;99522.78;;;25.18;34.78
70982;BME280;58640;51.320;9.456;2022-07-03T07:08:20;99512.31;;;25.20;35.79
70982;BME280;58640;51.320;9.456;2022-07-03T07:10:45;99517.78;;;25.76;35.16
70982;BME280;58640;51.320;9.456;2022-07-03T07:13:11;99511.91;;;25.58;37.94
70982;BME280;58640;51.320;9.456;2022-07-03T07:15:36;99526.13;;;26.22;35.09
70982;BME280;58640;51.320;9.456;2022-07-03T07:18:02;99524.47;;;26.16;35.88
70982;BME280;58640;51.320;9.456;2022-07-03T07:20:27;99524.75;;;26.19;37.12
70982;BME280;58640;51.320;9.456;2022-07-03T07:22:52;99526.16;;;26.72;35.66
70982;BME280;58640;51.320;9.456;2022-07-03T07:25:18;99522.47;;;27.27;32.74
70982;BME280;58640;51.320;9.456;2022-07-03T07:27:43;99524.84;;;27.43;34.89
70982;BME280;58640;51.320;9.456;2022-07-03T07:30:09;99526.94;;;27.71;33.14
70982;BME280;58640;51.320;9.456;2022-07-03T07:32:34;99533.63;;;27.60;34.79
70982;BME280;58640;51.320;9.456;2022-07-03T07:34:59;99526.06;;;27.17;35.55
70982;BME280;58640;51.320;9.456;2022-07-03T07:37:25;99527.13;;;27.36;35.30
70982;BME280;58640;51.320;9.456;2022-07-03T07:39:50;99534.09;;;28.26;32.73
70982;BME280;58640;51.320;9.456;2022-07-03T07:42:16;99530.31;;;28.07;33.30
70982;BME280;58640;51.320;9.456;2022-07-03T07:44:42;99533.66;;;28.04;34.04
70982;BME280;58640;51.320;9.456;2022-07-03T07:47:07;99525.09;;;28.05;33.98
70982;BME280;58640;51.320;9.456;2022-07-03T07:49:33;99533.25;;;27.77;34.15
70982;BME280;58640;51.320;9.456;2022-07-03T07:51:58;99534.19;;;28.11;33.92
70982;BME280;58640;51.320;9.456;2022-07-03T07:54:23;99527.59;;;28.40;32.86
70982;BME280;58640;51.320;9.456;2022-07-03T07:56:49;99518.75;;;28.38;34.26
70982;BME280;58640;51.320;9.456;2022-07-03T07:59:15;99530.97;;;28.32;32.66
70982;BME280;58640;51.320;9.456;2022-07-03T08:01:40;99529.34;;;28.65;32.70
70982;BME280;58640;51.320;9.456;2022-07-03T08:04:24;99523.28;;;28.24;31.30
70982;BME280;58640;51.320;9.456;2022-07-03T08:07:08;99518.34;;;28.55;31.78
70982;BME280;58640;51.320;9.456;2022-07-03T08:09:33;99520.44;;;28.34;32.41
70982;BME280;58640;51.320;9.456;2022-07-03T08:11:59;99527.59;;;28.40;32.86
70982;BME280;58640;51.320;9.456;2022-07-03T08:14:24;99527.66;;;27.97;33.06
70982;BME280;58640;51.320;9.456;2022-07-03T08:16:49;99524.63;;;28.32;32.81
70982;BME280;58640;51.320;9.456;2022-07-03T08:19:16;99526.78;;;28.01;32.20
70982;BME280;58640;51.320;9.456;2022-07-03T08:21:41;99525.47;;;27.94;34.36
70982;BME280;58640;51.320;9.456;2022-07-03T08:24:07;99522.91;;;28.02;33.33
70982;BME280;58640;51.320;9.456;2022-07-03T08:26:32;99514.25;;;28.52;33.01
70982;BME280;58640;51.320;9.456;2022-07-03T08:28:58;99522.50;;;28.19;32.76
70982;BME280;58640;51.320;9.456;2022-07-03T08:31:23;99525.09;;;28.05;33.66
70982;BME280;58640;51.320;9.456;2022-07-03T08:33:48;99518.00;;;27.25;34.70
70982;BME280;58640;51.320;9.456;2022-07-03T08:36:14;99519.97;;;27.84;35.18
70982;BME280;58640;51.320;9.456;2022-07-03T08:38:39;99517.06;;;27.60;35.73
70982;BME280;58640;51.320;9.456;2022-07-03T08:41:05;99518.09;;;28.18;33.05
70982;BME280;58640;51.320;9.456;2022-07-03T08:43:30;99505.94;;;28.52;33.91
70982;BME280;58640;51.320;9.456;2022-07-03T08:45:58;99511.47;;;28.47;34.19
70982;BME280;58640;51.320;9.456;2022-07-03T08:48:24;99503.69;;;28.21;35.67
70982;BME280;58640;51.320;9.456;2022-07-03T08:50:50;99515.44;;;28.03;35.56
70982;BME280;58640;51.320;9.456;2022-07-03T08:53:18;99506.72;;;27.76;35.51
70982;BME280;58640;51.320;9.456;2022-07-03T08:55:44;99501.56;;;28.08;33.66
70982;BME280;58640;51.320;9.456;2022-07-03T08:58:13;99502.03;;;28.20;35.74
70982;BME280;58640;51.320;9.456;2022-07-03T09:00:40;99503.50;;;28.41;31.67
70982;BME280;58640;51.320;9.456;2022-07-03T09:03:09;99497.88;;;28.56;32.29
70982;BME280;58640;51.320;9.456;2022-07-03T09:05:35;99500.69;;;28.46;33.65
70982;BME280;58640;51.320;9.456;2022-07-03T09:08:02;99493.78;;;28.43;33.77
70982;BME280;58640;51.320;9.456;2022-07-03T09:10:28;99510.06;;;27.73;33.94
70982;BME280;58640;51.320;9.456;2022-07-03T09:12:53;99501.97;;;27.38;33.28
70982;BME280;58640;51.320;9.456;2022-07-03T09:15:20;99498.81;;;27.59;33.82
70982;BME280;58640;51.320;9.456;2022-07-03T09:18:04;99504.41;;;27.98;32.37
70982;BME280;58640;51.320;9.456;2022-07-03T09:20:35;99498.91;;;27.93;31.33
70982;BME280;58640;51.320;9.456;2022-07-03T09:23:20;99497.00;;;27.88;33.67
70982;BME280;58640;51.320;9.456;2022-07-03T09:26:00;99491.53;;;27.09;34.04
70982;BME280;58640;51.320;9.456;2022-07-03T09:28:47;99496.13;;;27.49;34.19
70982;BME280;58640;51.320;9.456;2022-07-03T09:31:20;99498.44;;;27.76;34.20
70982;BME280;58640;51.320;9.456;2022-07-03T09:33:56;99494.50;;;28.88;30.14
70982;BME280;58640;51.320;9.456;2022-07-03T09:39:14;99494.13;;;29.23;31.16
70982;BME280;58640;51.320;9.456;2022-07-03T09:42:03;99496.38;;;28.69;32.54
70982;BME280;58640;51.320;9.456;2022-07-03T09:44:30;99497.69;;;29.00;31.29
70982;BME280;58640;51.320;9.456;2022-07-03T09:50:00;99492.38;;;27.69;34.14
70982;BME280;58640;51.320;9.456;2022-07-03T09:52:37;99488.78;;;27.09;35.46
70982;BME280;58640;51.320;9.456;2022-07-03T09:57:36;99491.22;;;27.31;34.07
70982;BME280;58640;51.320;9.456;2022-07-03T10:00:31;99492.34;;;27.30;34.44
70982;BME280;58640;51.320;9.456;2022-07-03T10:03:07;99490.44;;;28.18;31.35
70982;BME280;58640;51.320;9.456;2022-07-03T10:05:42;99495.34;;;27.87;31.54
70982;BME280;58640;51.320;9.456;2022-07-03T10:08:12;99488.06;;;28.35;30.38
70982;BME280;58640;51.320;9.456;2022-07-03T10:10:48;99481.31;;;28.17;31.32
70982;BME280;58640;51.320;9.456;2022-07-03T10:13:14;99484.56;;;28.24;31.34
70982;BME280;58640;51.320;9.456;2022-07-03T10:15:41;99474.31;;;28.58;31.92
70982;BME280;58640;51.320;9.456;2022-07-03T10:18:09;99477.72;;;28.50;31.27
70982;BME280;58640;51.320;9.456;2022-07-03T10:23:08;99479.38;;;29.04;30.38
70982;BME280;58640;51.320;9.456;2022-07-03T10:25:34;99484.38;;;29.25;30.70
70982;BME280;58640;51.320;9.456;2022-07-03T10:28:01;99482.47;;;29.44;29.99
70982;BME280;58640;51.320;9.456;2022-07-03T10:30:27;99487.53;;;29.42;28.98
70982;BME280;58640;51.320;9.456;2022-07-03T10:32:54;99472.47;;;29.01;31.25
70982;BME280;58640;51.320;9.456;2022-07-03T10:35:33;99480.56;;;29.21;29.18
70982;BME280;58640;51.320;9.456;2022-07-03T10:43:33;99463.88;;;30.06;28.93
70982;BME280;58640;51.320;9.456;2022-07-03T10:46:21;99460.06;;;29.64;28.47
70982;BME280;58640;51.320;9.456;2022-07-03T10:49:10;99465.78;;;29.07;30.29
70982;BME280;58640;51.320;9.456;2022-07-03T10:54:20;99458.41;;;28.69;30.77
70982;BME280;58640;51.320;9.456;2022-07-03T11:07:34;99443.22;;;28.38;30.62
70982;BME280;58640;51.320;9.456;2022-07-03T11:15:33;99446.06;;;28.28;30.63
70982;BME280;58640;51.320;9.456;2022-07-03T11:20:37;99443.63;;;29.07;31.97
70982;BME280;58640;51.320;9.456;2022-07-03T11:25:47;99435.88;;;28.57;29.66
70982;BME280;58640;51.320;9.456;2022-07-03T11:41:10;99418.78;;;28.16;31.72
70982;BME280;58640;51.320;9.456;2022-07-03T11:43:37;99412.09;;;27.94;32.01
70982;BME280;58640;51.320;9.456;2022-07-03T11:46:03;99407.88;;;28.01;30.74
70982;BME280;58640;51.320;9.456;2022-07-03T11:48:30;99406.56;;;27.94;30.47
70982;BME280;58640;51.320;9.456;2022-07-03T11:51:03;99408.25;;;27.85;30.72
70982;BME280;58640;51.320;9.456;2022-07-03T11:53:39;99423.81;;;27.76;30.89
70982;BME280;58640;51.320;9.456;2022-07-03T11:56:05;99413.03;;;27.74;30.88
70982;BME280;58640;51.320;9.456;2022-07-03T11:58:42;99417.66;;;27.84;30.35
70982;BME280;58640;51.320;9.456;2022-07-03T12:01:09;99409.03;;;27.52;32.10
70982;BME280;58640;51.320;9.456;2022-07-03T12:03:35;99411.09;;;27.36;34.31
70982;BME280;58640;51.320;9.456;2022-07-03T12:06:00;99408.50;;;27.50;31.11
70982;BME280;58640;51.320;9.456;2022-07-03T12:08:31;99406.31;;;27.47;32.42
70982;BME280;58640;51.320;9.456;2022-07-03T12:10:59;99405.47;;;27.46;32.59
70982;BME280;58640;51.320;9.456;2022-07-03T12:13:25;99406.69;;;27.74;31.50
70982;BME280;58640;51.320;9.456;2022-07-03T12:15:51;99400.22;;;27.88;30.72
70982;BME280;58640;51.320;9.456;2022-07-03T12:18:16;99400.22;;;27.88;33.34
70982;BME280;58640;51.320;9.456;2022-07-03T12:20:41;99391.94;;;27.83;29.89
70982;BME280;58640;51.320;9.456;2022-07-03T12:23:07;99394.66;;;27.55;29.05
70982;BME280;58640;51.320;9.456;2022-07-03T12:25:39;99393.34;;;27.47;29.91
70982;BME280;58640;51.320;9.456;2022-07-03T12:28:05;99408.00;;;27.43;31.61
70982;BME280;58640;51.320;9.456;2022-07-03T12:30:31;99398.81;;;27.52;30.31
70982;BME280;58640;51.320;9.456;2022-07-03T12:32:57;99391.34;;;27.53;30.91
70982;BME280;58640;51.320;9.456;2022-07-03T12:35:24;99393.88;;;27.49;30.15
70982;BME280;58640;51.320;9.456;2022-07-03T12:37:49;99390.97;;;27.69;29.76
70982;BME280;58640;51.320;9.456;2022-07-03T12:40:15;99384.69;;;27.59;31.47
70982;BME280;58640;51.320;9.456;2022-07-03T12:45:12;99387.53;;;27.49;30.34
70982;BME280;58640;51.320;9.456;2022-07-03T12:47:37;99390.28;;;27.49;30.98
70982;BME280;58640;51.320;9.456;2022-07-03T12:50:04;99379.16;;;27.59;29.61
70982;BME280;58640;51.320;9.456;2022-07-03T12:52:32;99369.41;;;27.71;30.03
70982;BME280;58640;51.320;9.456;2022-07-03T12:54:58;99373.81;;;27.67;30.54
70982;BME280;58640;51.320;9.456;2022-07-03T12:57:24;99361.38;;;27.70;30.84
70982;BME280;58640;51.320;9.456;2022-07-03T13:00:16;99367.44;;;27.72;31.86
70982;BME280;58640;51.320;9.456;2022-07-03T13:02:44;99366.25;;;27.83;29.41
70982;BME280;58640;51.320;9.456;2022-07-03T13:05:18;99361.06;;;27.76;28.97
70982;BME280;58640;51.320;9.456;2022-07-03T13:07:46;99358.63;;;27.70;30.07
70982;BME280;58640;51.320;9.456;2022-07-03T13:10:14;99355.56;;;27.71;30.03
70982;BME280;58640;51.320;9.456;2022-07-03T13:12:54;99366.97;;;27.98;29.01
70982;BME280;58640;51.320;9.456;2022-07-03T13:15:24;99360.44;;;27.84;29.52
70982;BME280;58640;51.320;9.456;2022-07-03T13:20:25;99359.03;;;27.87;29.74
70982;BME280;58640;51.320;9.456;2022-07-03T13:22:53;99356.31;;;27.82;29.76
70982;BME280;58640;51.320;9.456;2022-07-03T13:25:18;99350.47;;;27.88;30.56
70982;BME280;58640;51.320;9.456;2022-07-03T13:27:45;99353.72;;;27.95;30.32
70982;BME280;58640;51.320;9.456;2022-07-03T13:30:14;99344.56;;;28.00;29.54
70982;BME280;58640;51.320;9.456;2022-07-03T13:32:40;99341.03;;;27.89;31.00
70982;BME280;58640;51.320;9.456;2022-07-03T13:35:06;99341.03;;;27.89;30.70
70982;BME280;58640;51.320;9.456;2022-07-03T13:37:32;99346.25;;;27.96;29.81
70982;BME280;58640;51.320;9.456;2022-07-03T13:39:57;99341.72;;;28.10;30.37
70982;BME280;58640;51.320;9.456;2022-07-03T13:42:23;99345.19;;;28.20;30.02
70982;BME280;58640;51.320;9.456;2022-07-03T13:44:48;99341.44;;;28.35;28.96
70982;BME280;58640;51.320;9.456;2022-07-03T13:47:15;99346.25;;;28.53;27.87
70982;BME280;58640;51.320;9.456;2022-07-03T13:49:41;99342.81;;;28.61;27.55
70982;BME280;58640;51.320;9.456;2022-07-03T13:52:06;99346.88;;;28.69;27.72
70982;BME280;58640;51.320;9.456;2022-07-03T13:54:32;99348.41;;;28.80;28.44
70982;BME280;58640;51.320;9.456;2022-07-03T13:56:58;99348.75;;;28.73;27.43
70982;BME280;58640;51.320;9.456;2022-07-03T13:59:23;99345.00;;;28.64;28.13
70982;BME280;58640;51.320;9.456;2022-07-03T14:01:48;99344.34;;;28.72;26.45
70982;BME280;58640;51.320;9.456;2022-07-03T14:04:14;99332.97;;;28.50;29.33
70982;BME280;58640;51.320;9.456;2022-07-03T14:06:39;99331.66;;;28.19;29.89
70982;BME280;58640;51.320;9.456;2022-07-03T14:09:05;99329.06;;;27.99;29.38
70982;BME280;58640;51.320;9.456;2022-07-03T14:11:30;99322.50;;;28.18;28.21
70982;BME280;58640;51.320;9.456;2022-07-03T14:13:56;99324.22;;;28.14;28.93
70982;BME280;58640;51.320;9.456;2022-07-03T14:16:22;99322.97;;;28.02;30.02
70982;BME280;58640;51.320;9.456;2022-07-03T14:18:47;99330.19;;;27.98;29.15
70982;BME280;58640;51.320;9.456;2022-07-03T14:21:13;99328.91;;;27.90;27.28
70982;BME280;58640;51.320;9.456;2022-07-03T14:23:38;99318.22;;;27.74;30.17